sensor_id;sensor_type;location;lat;lon;timestamp;noise_LAeq;noise_LA_min;noise_LA_max;noise_LA01;noise_LA95
66463;Laerm;56827;52.178;4.500;2024-03-22T00:00:07;34.89;33.20;41.62;;
66463;Laerm;56827;52.178;4.500;2024-03-22T00:00:21;33.39;31.45;36.39;;
66463;Laerm;56827;52.178;4.500;2024-03-22T00:00:31;32.65;31.31;34.12;;
66463;Laerm;56827;52.178;4.500;2024-03-22T00:00:41;32.59;30.83;34.35;;
66463;Laerm;56827;52.178;4.500;2024-03-22T00:00:52;32.99;30.45;35.77;;
66463;Laerm;56827;52.178;4.500;2024-03-22T00:01:02;36.31;34.13;39.48;;
66463;Laerm;56827;52.178;4.500;2024-03-22T00:01:15;34.59;32.49;37.30;;
66463;Laerm;56827;52.178;4.500;2024-03-22T00:01:25;33.40;31.74;35.45;;
66463;Laerm;56827;52.178;4.500;2024-03-22T00:01:35;34.08;32.19;36.69;;
66463;Laerm;56827;52.178;4.500;2024-03-22T00:01:45;32.87;30.92;34.69;;
66463;Laerm;56827;52.178;4.500;2024-03-22T00:01:56;32.20;30.81;33.55;;
66463;Laerm;56827;52.178;4.500;2024-03-22T00:02:06;33.37;30.84;35.74;;
66463;Laerm;56827;52.178;4.500;2024-03-22T00:02:17;34.38;32.72;36.08;;
66463;Laerm;56827;52.178;4.500;2024-03-22T00:02:27;34.10;32.05;35.47;;
66463;Laerm;56827;52.178;4.500;2024-03-22T00:02:38;33.52;31.33;40.30;;
66463;Laerm;56827;52.178;4.500;2024-03-22T00:02:48;32.83;31.38;34.72;;
66463;Laerm;56827;52.178;4.500;2024-03-22T00:02:58;33.69;31.63;35.67;;
66463;Laerm;56827;52.178;4.500;2024-03-22T00:03:08;33.66;31.27;36.19;;
66463;Laerm;56827;52.178;4.500;2024-03-22T00:03:18;33.14;31.23;41.76;;
66463;Laerm;56827;52.178;4.500;2024-03-22T00:03:29;33.42;31.53;35.49;;
66463;Laerm;56827;52.178;4.500;2024-03-22T00:03:39;34.25;32.28;36.35;;
66463;Laerm;56827;52.178;4.500;2024-03-22T00:03:50;35.19;33.00;39.90;;
66463;Laerm;56827;52.178;4.500;2024-03-22T00:04:00;40.65;33.75;44.30;;
66463;Laerm;56827;52.178;4.500;2024-03-22T00:04:10;33.38;31.79;35.01;;
66463;Laerm;56827;52.178;4.500;2024-03-22T00:04:21;33.12;31.50;35.25;;
66463;Laerm;56827;52.178;4.500;2024-03-22T00:04:31;33.21;31.47;35.15;;
66463;Laerm;56827;52.178;4.500;2024-03-22T00:04:41;32.37;30.75;34.38;;
66463;Laerm;56827;52.178;4.500;2024-03-22T00:04:51;32.57;31.08;34.22;;
66463;Laerm;56827;52.178;4.500;2024-03-22T00:05:03;32.95;31.46;37.84;;
66463;Laerm;56827;52.178;4.500;2024-03-22T00:05:13;33.06;31.38;34.72;;
66463;Laerm;56827;52.178;4.500;2024-03-22T00:05:23;32.76;31.04;38.12;;
66463;Laerm;56827;52.178;4.500;2024-03-22T00:05:34;35.25;31.49;46.34;;
66463;Laerm;56827;52.178;4.500;2024-03-22T00:05:44;38.92;31.77;53.39;;
66463;Laerm;56827;52.178;4.500;2024-03-22T00:05:54;32.61;31.04;34.47;;
66463;Laerm;56827;52.178;4.500;2024-03-22T00:06:04;32.64;31.01;34.01;;
66463;Laerm;56827;52.178;4.500;2024-03-22T00:06:15;33.26;31.68;35.38;;
66463;Laerm;56827;52.178;4.500;2024-03-22T00:06:25;32.98;31.34;35.01;;
66463;Laerm;56827;52.178;4.500;2024-03-22T00:06:35;33.03;30.90;39.09;;
66463;Laerm;56827;52.178;4.500;2024-03-22T00:06:46;32.14;30.82;36.96;;
66463;Laerm;56827;52.178;4.500;2024-03-22T00:06:56;32.11;30.93;33.69;;
66463;Laerm;56827;52.178;4.500;2024-03-22T00:07:07;32.19;30.62;35.33;;
66463;Laerm;56827;52.178;4.500;2024-03-22T00:07:17;36.71;31.51;40.12;;
66463;Laerm;56827;52.178;4.500;2024-03-22T00:07:27;35.66;33.69;39.76;;
66463;Laerm;56827;52.178;4.500;2024-03-22T00:07:38;36.42;31.80;41.88;;
66463;Laerm;56827;52.178;4.500;2024-03-22T00:07:48;34.17;32.12;39.43;;
66463;Laerm;56827;52.178;4.500;2024-03-22T00:07:58;36.82;32.31;39.61;;
66463;Laerm;56827;52.178;4.500;2024-03-22T00:08:09;43.89;37.33;53.81;;
66463;Laerm;56827;52.178;4.500;2024-03-22T00:08:19;46.17;41.61;51.03;;
66463;Laerm;56827;52.178;4.500;2024-03-22T00:08:29;38.86;34.92;44.95;;
66463;Laerm;56827;52.178;4.500;2024-03-22T00:08:40;35.51;32.75;38.36;;
66463;Laerm;56827;52.178;4.500;2024-03-22T00:08:50;35.76;32.39;42.42;;
66463;Laerm;56827;52.178;4.500;2024-03-22T00:09:00;38.73;34.53;42.79;;
66463;Laerm;56827;52.178;4.500;2024-03-22T00:09:10;39.41;36.65;44.34;;
66463;Laerm;56827;52.178;4.500;2024-03-22T00:09:21;49.59;36.23;66.66;;
66463;Laerm;56827;52.178;4.500;2024-03-22T00:09:31;39.30;34.68;49.37;;
66463;Laerm;56827;52.178;4.500;2024-03-22T00:09:41;44.01;32.82;59.63;;
66463;Laerm;56827;52.178;4.500;2024-03-22T00:09:51;39.17;32.51;55.13;;
66463;Laerm;56827;52.178;4.500;2024-03-22T00:10:02;38.50;35.71;40.75;;
66463;Laerm;56827;52.178;4.500;2024-03-22T00:10:12;36.33;34.51;38.06;;
66463;Laerm;56827;52.178;4.500;2024-03-22T00:10:23;34.65;32.83;37.23;;
66463;Laerm;56827;52.178;4.500;2024-03-22T00:10:34;33.81;32.03;35.64;;
66463;Laerm;56827;52.178;4.500;2024-03-22T00:10:44;33.07;31.64;35.06;;
66463;Laerm;56827;52.178;4.500;2024-03-22T00:10:54;35.29;31.90;43.55;;
66463;Laerm;56827;52.178;4.500;2024-03-22T00:11:04;36.40;32.25;40.90;;
66463;Laerm;56827;52.178;4.500;2024-03-22T00:11:15;36.69;34.18;39.68;;
66463;Laerm;56827;52.178;4.500;2024-03-22T00:11:25;35.51;32.73;46.78;;
66463;Laerm;56827;52.178;4.500;2024-03-22T00:11:35;33.89;31.79;44.64;;
66463;Laerm;56827;52.178;4.500;2024-03-22T00:11:46;32.70;31.36;34.39;;
66463;Laerm;56827;52.178;4.500;2024-03-22T00:11:56;34.68;31.40;46.93;;
66463;Laerm;56827;52.178;4.500;2024-03-22T00:12:06;37.74;32.50;48.52;;
66463;Laerm;56827;52.178;4.500;2024-03-22T00:12:17;39.16;31.05;47.73;;
66463;Laerm;56827;52.178;4.500;2024-03-22T00:12:27;32.84;31.53;34.42;;
66463;Laerm;56827;52.178;4.500;2024-03-22T00:12:37;33.65;32.07;35.24;;
66463;Laerm;56827;52.178;4.500;2024-03-22T00:12:48;33.70;31.61;40.26;;
66463;Laerm;56827;52.178;4.500;2024-03-22T00:12:59;33.38;31.18;36.43;;
66463;Laerm;56827;52.178;4.500;2024-03-22T00:13:09;34.33;32.75;36.64;;
66463;Laerm;56827;52.178;4.500;2024-03-22T00:13:19;38.46;34.16;45.26;;
66463;Laerm;56827;52.178;4.500;2024-03-22T00:13:29;41.30;35.75;47.75;;
66463;Laerm;56827;52.178;4.500;2024-03-22T00:13:40;35.72;33.16;45.53;;
66463;Laerm;56827;52.178;4.500;2024-03-22T00:13:50;34.02;32.44;38.21;;
66463;Laerm;56827;52.178;4.500;2024-03-22T00:14:01;35.22;32.02;38.09;;
66463;Laerm;56827;52.178;4.500;2024-03-22T00:14:11;32.86;31.14;36.14;;
66463;Laerm;56827;52.178;4.500;2024-03-22T00:14:22;35.19;32.83;36.85;;
66463;Laerm;56827;52.178;4.500;2024-03-22T00:14:32;33.96;31.88;36.33;;
66463;Laerm;56827;52.178;4.500;2024-03-22T00:14:42;32.98;31.58;34.58;;
66463;Laerm;56827;52.178;4.500;2024-03-22T00:14:52;33.22;31.49;34.64;;
66463;Laerm;56827;52.178;4.500;2024-03-22T00:15:04;33.56;32.03;34.87;;
66463;Laerm;56827;52.178;4.500;2024-03-22T00:15:15;33.47;32.16;34.72;;
66463;Laerm;56827;52.178;4.500;2024-03-22T00:15:25;34.21;32.23;39.85;;
66463;Laerm;56827;52.178;4.500;2024-03-22T00:15:35;39.45;33.51;49.73;;
66463;Laerm;56827;52.178;4.500;2024-03-22T00:15:46;37.98;33.64;48.63;;
66463;Laerm;56827;52.178;4.500;2024-03-22T00:15:56;34.80;31.61;42.47;;
66463;Laerm;56827;52.178;4.500;2024-03-22T00:16:06;33.78;31.60;37.00;;
66463;Laerm;56827;52.178;4.500;2024-03-22T00:16:16;34.26;31.77;37.88;;
66463;Laerm;56827;52.178;4.500;2024-03-22T00:16:27;34.27;32.15;39.62;;
66463;Laerm;56827;52.178;4.500;2024-03-22T00:16:37;33.97;32.10;41.35;;
66463;Laerm;56827;52.178;4.500;2024-03-22T00:16:47;35.17;32.42;41.89;;
66463;Laerm;56827;52.178;4.500;2024-03-22T00:16:58;37.15;34.44;39.36;;
66463;Laerm;56827;52.178;4.500;2024-03-22T00:17:08;38.44;36.46;40.35;;
66463;Laerm;56827;52.178;4.500;2024-03-22T00:17:19;37.92;34.83;43.71;;
66463;Laerm;56827;52.178;4.500;2024-03-22T00:17:29;41.35;38.48;49.19;;
66463;Laerm;56827;52.178;4.500;2024-03-22T00:17:42;40.35;37.14;42.94;;
66463;Laerm;56827;52.178;4.500;2024-03-22T00:17:52;40.79;37.73;43.93;;
66463;Laerm;56827;52.178;4.500;2024-03-22T00:18:03;39.23;35.13;42.11;;
66463;Laerm;56827;52.178;4.500;2024-03-22T00:18:13;37.13;34.50;40.07;;
66463;Laerm;56827;52.178;4.500;2024-03-22T00:18:23;36.29;33.74;38.88;;
66463;Laerm;56827;52.178;4.500;2024-03-22T00:18:33;34.62;32.68;37.01;;
66463;Laerm;56827;52.178;4.500;2024-03-22T00:18:44;34.46;32.43;37.00;;
66463;Laerm;56827;52.178;4.500;2024-03-22T00:18:54;33.92;31.58;36.11;;
66463;Laerm;56827;52.178;4.500;2024-03-22T00:19:04;35.95;32.55;40.91;;
66463;Laerm;56827;52.178;4.500;2024-03-22T00:19:14;33.60;31.74;35.75;;
66463;Laerm;56827;52.178;4.500;2024-03-22T00:19:25;32.88;31.22;34.58;;
66463;Laerm;56827;52.178;4.500;2024-03-22T00:19:35;33.02;31.29;35.12;;
66463;Laerm;56827;52.178;4.500;2024-03-22T00:19:45;32.50;30.89;33.87;;
66463;Laerm;56827;52.178;4.500;2024-03-22T00:19:56;32.41;31.20;35.16;;
66463;Laerm;56827;52.178;4.500;2024-03-22T00:20:06;33.19;31.41;35.13;;
66463;Laerm;56827;52.178;4.500;2024-03-22T00:20:16;35.13;31.77;38.78;;
66463;Laerm;56827;52.178;4.500;2024-03-22T00:20:27;34.09;31.28;37.38;;
66463;Laerm;56827;52.178;4.500;2024-03-22T00:20:37;35.71;31.27;44.99;;
66463;Laerm;56827;52.178;4.500;2024-03-22T00:20:47;32.77;31.20;34.83;;
66463;Laerm;56827;52.178;4.500;2024-03-22T00:20:57;32.54;30.91;34.23;;
66463;Laerm;56827;52.178;4.500;2024-03-22T00:21:08;32.93;31.31;34.89;;
66463;Laerm;56827;52.178;4.500;2024-03-22T00:21:18;33.75;31.43;36.52;;
66463;Laerm;56827;52.178;4.500;2024-03-22T00:21:28;33.13;31.52;38.78;;
66463;Laerm;56827;52.178;4.500;2024-03-22T00:21:39;32.96;31.34;34.74;;
66463;Laerm;56827;52.178;4.500;2024-03-22T00:21:49;32.72;31.29;34.12;;
66463;Laerm;56827;52.178;4.500;2024-03-22T00:22:00;32.44;31.02;33.76;;
66463;Laerm;56827;52.178;4.500;2024-03-22T00:22:10;32.72;31.20;34.31;;
66463;Laerm;56827;52.178;4.500;2024-03-22T00:22:20;32.66;31.34;34.14;;
66463;Laerm;56827;52.178;4.500;2024-03-22T00:22:30;32.79;31.43;34.82;;
66463;Laerm;56827;52.178;4.500;2024-03-22T00:22:43;32.46;31.01;34.39;;
66463;Laerm;56827;52.178;4.500;2024-03-22T00:22:53;32.68;30.83;35.27;;
66463;Laerm;56827;52.178;4.500;2024-03-22T00:23:03;34.88;32.82;38.37;;
66463;Laerm;56827;52.178;4.500;2024-03-22T00:23:14;36.44;32.99;42.47;;
66463;Laerm;56827;52.178;4.500;2024-03-22T00:23:24;36.54;34.41;40.70;;
66463;Laerm;56827;52.178;4.500;2024-03-22T00:23:34;35.98;33.56;38.44;;
66463;Laerm;56827;52.178;4.500;2024-03-22T00:23:45;36.74;35.19;39.38;;
66463;Laerm;56827;52.178;4.500;2024-03-22T00:23:55;35.13;32.76;38.20;;
66463;Laerm;56827;52.178;4.500;2024-03-22T00:24:06;34.68;32.81;36.70;;
66463;Laerm;56827;52.178;4.500;2024-03-22T00:24:16;34.37;31.80;37.41;;
66463;Laerm;56827;52.178;4.500;2024-03-22T00:24:26;34.74;33.17;38.08;;
66463;Laerm;56827;52.178;4.500;2024-03-22T00:24:36;33.92;32.21;38.52;;
66463;Laerm;56827;52.178;4.500;2024-03-22T00:24:47;33.42;31.70;35.32;;
66463;Laerm;56827;52.178;4.500;2024-03-22T00:24:57;33.06;31.82;34.33;;
66463;Laerm;56827;52.178;4.500;2024-03-22T00:25:07;33.10;31.58;34.39;;
66463;Laerm;56827;52.178;4.500;2024-03-22T00:25:17;33.62;31.64;35.77;;
66463;Laerm;56827;52.178;4.500;2024-03-22T00:25:28;33.69;31.58;35.42;;
66463;Laerm;56827;52.178;4.500;2024-03-22T00:25:38;33.96;32.04;35.74;;
66463;Laerm;56827;52.178;4.500;2024-03-22T00:25:48;34.20;32.48;36.09;;
66463;Laerm;56827;52.178;4.500;2024-03-22T00:25:58;35.14;31.83;38.38;;
66463;Laerm;56827;52.178;4.500;2024-03-22T00:26:09;38.01;33.86;42.50;;
66463;Laerm;56827;52.178;4.500;2024-03-22T00:26:19;35.02;31.83;39.48;;
66463;Laerm;56827;52.178;4.500;2024-03-22T00:26:31;33.09;31.06;35.07;;
66463;Laerm;56827;52.178;4.500;2024-03-22T00:26:41;33.79;31.83;35.99;;
66463;Laerm;56827;52.178;4.500;2024-03-22T00:26:52;35.52;31.08;40.53;;
66463;Laerm;56827;52.178;4.500;2024-03-22T00:27:02;39.27;35.85;42.73;;
66463;Laerm;56827;52.178;4.500;2024-03-22T00:27:12;35.34;32.11;40.24;;
66463;Laerm;56827;52.178;4.500;2024-03-22T00:27:22;32.50;30.80;36.37;;
66463;Laerm;56827;52.178;4.500;2024-03-22T00:27:33;31.88;30.43;33.83;;
66463;Laerm;56827;52.178;4.500;2024-03-22T00:27:43;32.13;31.01;33.62;;
66463;Laerm;56827;52.178;4.500;2024-03-22T00:27:54;32.34;30.85;34.13;;
66463;Laerm;56827;52.178;4.500;2024-03-22T00:28:05;32.43;30.75;34.05;;
66463;Laerm;56827;52.178;4.500;2024-03-22T00:28:15;32.47;30.85;33.99;;
66463;Laerm;56827;52.178;4.500;2024-03-22T00:28:25;32.43;30.52;37.40;;
66463;Laerm;56827;52.178;4.500;2024-03-22T00:28:35;33.30;31.05;36.31;;
66463;Laerm;56827;52.178;4.500;2024-03-22T00:28:46;34.26;31.48;37.62;;
66463;Laerm;56827;52.178;4.500;2024-03-22T00:28:56;33.53;31.95;34.98;;
66463;Laerm;56827;52.178;4.500;2024-03-22T00:29:08;32.92;31.27;34.46;;
66463;Laerm;56827;52.178;4.500;2024-03-22T00:29:18;33.60;31.59;37.50;;
66463;Laerm;56827;52.178;4.500;2024-03-22T00:29:28;34.77;32.19;37.23;;
66463;Laerm;56827;52.178;4.500;2024-03-22T00:29:39;36.69;32.01;40.62;;
66463;Laerm;56827;52.178;4.500;2024-03-22T00:29:49;32.45;30.64;36.22;;
66463;Laerm;56827;52.178;4.500;2024-03-22T00:29:59;32.27;30.79;33.86;;
66463;Laerm;56827;52.178;4.500;2024-03-22T00:30:10;32.46;30.84;35.15;;
66463;Laerm;56827;52.178;4.500;2024-03-22T00:30:20;41.15;32.37;52.05;;
66463;Laerm;56827;52.178;4.500;2024-03-22T00:30:30;38.06;33.73;41.47;;
66463;Laerm;56827;52.178;4.500;2024-03-22T00:30:40;34.75;31.44;38.25;;
66463;Laerm;56827;52.178;4.500;2024-03-22T00:30:51;33.37;31.40;39.31;;
66463;Laerm;56827;52.178;4.500;2024-03-22T00:31:01;32.85;30.88;38.62;;
66463;Laerm;56827;52.178;4.500;2024-03-22T00:31:11;33.03;31.66;34.97;;
66463;Laerm;56827;52.178;4.500;2024-03-22T00:31:22;32.66;30.84;34.14;;
66463;Laerm;56827;52.178;4.500;2024-03-22T00:31:32;32.84;31.14;35.00;;
66463;Laerm;56827;52.178;4.500;2024-03-22T00:31:42;34.46;31.65;41.37;;
66463;Laerm;56827;52.178;4.500;2024-03-22T00:31:52;44.37;32.94;57.54;;
66463;Laerm;56827;52.178;4.500;2024-03-22T00:32:03;38.66;32.61;46.97;;
66463;Laerm;56827;52.178;4.500;2024-03-22T00:32:13;33.50;31.87;35.98;;
66463;Laerm;56827;52.178;4.500;2024-03-22T00:32:23;33.21;31.20;34.99;;
66463;Laerm;56827;52.178;4.500;2024-03-22T00:32:34;32.63;30.59;35.24;;
66463;Laerm;56827;52.178;4.500;2024-03-22T00:32:44;32.33;30.91;34.60;;
66463;Laerm;56827;52.178;4.500;2024-03-22T00:32:56;32.29;30.64;33.94;;
66463;Laerm;56827;52.178;4.500;2024-03-22T00:33:07;32.87;30.64;34.51;;
66463;Laerm;56827;52.178;4.500;2024-03-22T00:33:17;32.22;30.74;34.22;;
66463;Laerm;56827;52.178;4.500;2024-03-22T00:33:27;33.26;31.16;35.46;;
66463;Laerm;56827;52.178;4.500;2024-03-22T00:33:37;33.66;30.96;38.00;;
66463;Laerm;56827;52.178;4.500;2024-03-22T00:33:48;32.72;30.98;34.62;;
66463;Laerm;56827;52.178;4.500;2024-03-22T00:33:58;32.58;30.85;34.16;;
66463;Laerm;56827;52.178;4.500;2024-03-22T00:34:08;32.04;30.47;33.75;;
66463;Laerm;56827;52.178;4.500;2024-03-22T00:34:18;32.17;30.36;33.99;;
66463;Laerm;56827;52.178;4.500;2024-03-22T00:34:29;32.65;30.96;34.37;;
66463;Laerm;56827;52.178;4.500;2024-03-22T00:34:40;33.47;31.15;37.90;;
66463;Laerm;56827;52.178;4.500;2024-03-22T00:34:50;33.46;30.56;40.47;;
66463;Laerm;56827;52.178;4.500;2024-03-22T00:35:00;34.36;31.46;44.11;;
66463;Laerm;56827;52.178;4.500;2024-03-22T00:35:11;32.67;30.99;35.52;;
66463;Laerm;56827;52.178;4.500;2024-03-22T00:35:21;33.04;30.67;35.18;;
66463;Laerm;56827;52.178;4.500;2024-03-22T00:35:31;32.70;30.86;34.18;;
66463;Laerm;56827;52.178;4.500;2024-03-22T00:35:41;33.72;31.60;37.03;;
66463;Laerm;56827;52.178;4.500;2024-03-22T00:35:52;33.47;31.95;35.56;;
66463;Laerm;56827;52.178;4.500;2024-03-22T00:36:02;32.67;31.21;34.23;;
66463;Laerm;56827;52.178;4.500;2024-03-22T00:36:12;32.53;30.94;34.49;;
66463;Laerm;56827;52.178;4.500;2024-03-22T00:36:23;35.16;31.92;39.35;;
66463;Laerm;56827;52.178;4.500;2024-03-22T00:36:33;32.54;30.56;35.40;;
66463;Laerm;56827;52.178;4.500;2024-03-22T00:36:44;32.54;30.40;34.81;;
66463;Laerm;56827;52.178;4.500;2024-03-22T00:36:55;33.35;31.46;40.23;;
66463;Laerm;56827;52.178;4.500;2024-03-22T00:37:06;35.04;31.14;48.12;;
66463;Laerm;56827;52.178;4.500;2024-03-22T00:37:16;32.74;30.75;36.33;;
66463;Laerm;56827;52.178;4.500;2024-03-22T00:37:27;32.52;30.83;34.70;;
66463;Laerm;56827;52.178;4.500;2024-03-22T00:37:38;32.16;30.77;36.06;;
66463;Laerm;56827;52.178;4.500;2024-03-22T00:37:48;32.02;30.07;33.81;;
66463;Laerm;56827;52.178;4.500;2024-03-22T00:37:58;33.01;30.59;35.48;;
66463;Laerm;56827;52.178;4.500;2024-03-22T00:38:08;33.80;31.98;35.84;;
66463;Laerm;56827;52.178;4.500;2024-03-22T00:38:19;35.95;32.93;40.53;;
66463;Laerm;56827;52.178;4.500;2024-03-22T00:38:29;38.72;34.73;42.12;;
66463;Laerm;56827;52.178;4.500;2024-03-22T00:38:39;36.79;33.05;41.02;;
66463;Laerm;56827;52.178;4.500;2024-03-22T00:38:49;34.14;32.39;36.21;;
66463;Laerm;56827;52.178;4.500;2024-03-22T00:39:00;33.98;32.04;36.86;;
66463;Laerm;56827;52.178;4.500;2024-03-22T00:39:10;35.09;33.05;39.88;;
66463;Laerm;56827;52.178;4.500;2024-03-22T00:39:20;33.95;31.57;36.26;;
66463;Laerm;56827;52.178;4.500;2024-03-22T00:39:30;32.58;30.73;35.43;;
66463;Laerm;56827;52.178;4.500;2024-03-22T00:39:41;32.45;30.60;35.31;;
66463;Laerm;56827;52.178;4.500;2024-03-22T00:39:51;31.92;30.65;34.04;;
66463;Laerm;56827;52.178;4.500;2024-03-22T00:40:01;32.18;30.51;34.02;;
66463;Laerm;56827;52.178;4.500;2024-03-22T00:40:12;32.78;31.25;34.52;;
66463;Laerm;56827;52.178;4.500;2024-03-22T00:40:22;34.30;32.15;36.62;;
66463;Laerm;56827;52.178;4.500;2024-03-22T00:40:32;34.50;32.72;36.10;;
66463;Laerm;56827;52.178;4.500;2024-03-22T00:40:43;34.91;33.10;36.83;;
66463;Laerm;56827;52.178;4.500;2024-03-22T00:40:53;34.71;33.07;37.06;;
66463;Laerm;56827;52.178;4.500;2024-03-22T00:41:03;34.48;32.73;36.57;;
66463;Laerm;56827;52.178;4.500;2024-03-22T00:41:14;32.99;30.72;34.84;;
66463;Laerm;56827;52.178;4.500;2024-03-22T00:41:24;32.70;30.95;34.84;;
66463;Laerm;56827;52.178;4.500;2024-03-22T00:41:34;33.09;30.84;36.60;;
66463;Laerm;56827;52.178;4.500;2024-03-22T00:41:44;33.18;31.46;34.76;;
66463;Laerm;56827;52.178;4.500;2024-03-22T00:41:55;34.61;31.39;41.40;;
66463;Laerm;56827;52.178;4.500;2024-03-22T00:42:05;33.87;31.59;39.19;;
66463;Laerm;56827;52.178;4.500;2024-03-22T00:42:15;33.48;31.45;36.51;;
66463;Laerm;56827;52.178;4.500;2024-03-22T00:42:26;34.09;31.97;36.93;;
66463;Laerm;56827;52.178;4.500;2024-03-22T00:42:36;32.89;31.51;34.27;;
66463;Laerm;56827;52.178;4.500;2024-03-22T00:42:46;32.83;31.23;35.69;;
66463;Laerm;56827;52.178;4.500;2024-03-22T00:42:57;34.48;31.65;37.36;;
66463;Laerm;56827;52.178;4.500;2024-03-22T00:43:07;33.67;32.08;37.63;;
66463;Laerm;56827;52.178;4.500;2024-03-22T00:43:17;33.67;31.88;35.80;;
66463;Laerm;56827;52.178;4.500;2024-03-22T00:43:27;32.52;30.59;34.16;;
66463;Laerm;56827;52.178;4.500;2024-03-22T00:43:38;33.22;31.43;35.47;;
66463;Laerm;56827;52.178;4.500;2024-03-22T00:43:48;32.73;31.08;34.45;;
66463;Laerm;56827;52.178;4.500;2024-03-22T00:43:58;33.00;31.07;35.00;;
66463;Laerm;56827;52.178;4.500;2024-03-22T00:44:08;35.75;32.51;38.58;;
66463;Laerm;56827;52.178;4.500;2024-03-22T00:44:19;33.87;32.30;35.52;;
66463;Laerm;56827;52.178;4.500;2024-03-22T00:44:29;35.04;31.34;39.52;;
66463;Laerm;56827;52.178;4.500;2024-03-22T00:44:39;37.46;33.49;41.35;;
66463;Laerm;56827;52.178;4.500;2024-03-22T00:44:49;36.36;33.71;40.00;;
66463;Laerm;56827;52.178;4.500;2024-03-22T00:44:59;33.65;31.11;36.93;;
66463;Laerm;56827;52.178;4.500;2024-03-22T00:45:10;32.88;31.37;35.40;;
66463;Laerm;56827;52.178;4.500;2024-03-22T00:45:20;33.09;31.45;35.02;;
66463;Laerm;56827;52.178;4.500;2024-03-22T00:45:30;33.23;31.50;34.71;;
66463;Laerm;56827;52.178;4.500;2024-03-22T00:45:40;33.58;31.74;36.75;;
66463;Laerm;56827;52.178;4.500;2024-03-22T00:45:51;34.57;32.72;37.50;;
66463;Laerm;56827;52.178;4.500;2024-03-22T00:46:01;34.60;32.32;36.32;;
66463;Laerm;56827;52.178;4.500;2024-03-22T00:46:12;34.60;32.36;36.68;;
66463;Laerm;56827;52.178;4.500;2024-03-22T00:46:22;34.45;32.12;36.03;;
66463;Laerm;56827;52.178;4.500;2024-03-22T00:46:33;36.47;32.78;41.77;;
66463;Laerm;56827;52.178;4.500;2024-03-22T00:46:43;37.45;34.37;41.50;;
66463;Laerm;56827;52.178;4.500;2024-03-22T00:46:53;35.78;31.06;39.82;;
66463;Laerm;56827;52.178;4.500;2024-03-22T00:47:04;32.37;30.69;33.84;;
66463;Laerm;56827;52.178;4.500;2024-03-22T00:47:15;33.02;30.90;35.71;;
66463;Laerm;56827;52.178;4.500;2024-03-22T00:47:25;33.10;31.17;35.58;;
66463;Laerm;56827;52.178;4.500;2024-03-22T00:47:36;32.93;30.97;34.56;;
66463;Laerm;56827;52.178;4.500;2024-03-22T00:47:46;33.45;31.83;35.30;;
66463;Laerm;56827;52.178;4.500;2024-03-22T00:47:56;32.56;31.07;34.11;;
66463;Laerm;56827;52.178;4.500;2024-03-22T00:48:07;32.50;31.01;33.88;;
66463;Laerm;56827;52.178;4.500;2024-03-22T00:48:17;32.63;30.94;35.11;;
66463;Laerm;56827;52.178;4.500;2024-03-22T00:48:28;33.06;31.54;34.73;;
66463;Laerm;56827;52.178;4.500;2024-03-22T00:48:39;34.78;31.62;38.98;;
66463;Laerm;56827;52.178;4.500;2024-03-22T00:48:49;34.61;32.71;36.67;;
66463;Laerm;56827;52.178;4.500;2024-03-22T00:48:59;37.05;34.65;39.81;;
66463;Laerm;56827;52.178;4.500;2024-03-22T00:49:09;37.78;34.06;51.54;;
66463;Laerm;56827;52.178;4.500;2024-03-22T00:49:20;34.18;31.23;36.49;;
66463;Laerm;56827;52.178;4.500;2024-03-22T00:49:30;33.87;31.71;37.97;;
66463;Laerm;56827;52.178;4.500;2024-03-22T00:49:40;34.83;32.12;38.99;;
66463;Laerm;56827;52.178;4.500;2024-03-22T00:49:51;36.27;31.76;41.75;;
66463;Laerm;56827;52.178;4.500;2024-03-22T00:50:01;35.20;32.27;38.71;;
66463;Laerm;56827;52.178;4.500;2024-03-22T00:50:12;33.16;31.01;37.31;;
66463;Laerm;56827;52.178;4.500;2024-03-22T00:50:22;32.57;30.43;33.99;;
66463;Laerm;56827;52.178;4.500;2024-03-22T00:50:33;32.19;30.87;33.74;;
66463;Laerm;56827;52.178;4.500;2024-03-22T00:50:43;32.40;30.99;37.01;;
66463;Laerm;56827;52.178;4.500;2024-03-22T00:50:53;32.61;31.09;34.79;;
66463;Laerm;56827;52.178;4.500;2024-03-22T00:51:04;32.80;31.08;34.03;;
66463;Laerm;56827;52.178;4.500;2024-03-22T00:51:14;32.23;30.75;34.09;;
66463;Laerm;56827;52.178;4.500;2024-03-22T00:51:27;32.87;31.08;35.46;;
66463;Laerm;56827;52.178;4.500;2024-03-22T00:51:38;36.26;32.70;40.04;;
66463;Laerm;56827;52.178;4.500;2024-03-22T00:51:48;39.73;34.35;43.55;;
66463;Laerm;56827;52.178;4.500;2024-03-22T00:51:58;42.24;37.04;45.07;;
66463;Laerm;56827;52.178;4.500;2024-03-22T00:52:08;35.54;33.33;37.94;;
66463;Laerm;56827;52.178;4.500;2024-03-22T00:52:19;34.46;31.52;37.96;;
66463;Laerm;56827;52.178;4.500;2024-03-22T00:52:29;32.95;31.32;35.17;;
66463;Laerm;56827;52.178;4.500;2024-03-22T00:52:39;33.40;31.50;36.73;;
66463;Laerm;56827;52.178;4.500;2024-03-22T00:52:52;35.44;31.36;43.45;;
66463;Laerm;56827;52.178;4.500;2024-03-22T00:53:04;33.82;31.28;38.71;;
66463;Laerm;56827;52.178;4.500;2024-03-22T00:53:16;35.84;31.19;40.22;;
66463;Laerm;56827;52.178;4.500;2024-03-22T00:53:26;34.30;31.32;45.99;;
66463;Laerm;56827;52.178;4.500;2024-03-22T00:53:37;36.92;32.99;49.09;;
66463;Laerm;56827;52.178;4.500;2024-03-22T00:53:47;42.85;34.66;55.85;;
66463;Laerm;56827;52.178;4.500;2024-03-22T00:53:57;38.78;31.04;52.93;;
66463;Laerm;56827;52.178;4.500;2024-03-22T00:54:07;32.73;30.99;34.39;;
66463;Laerm;56827;52.178;4.500;2024-03-22T00:54:18;32.11;30.31;34.68;;
66463;Laerm;56827;52.178;4.500;2024-03-22T00:54:29;32.39;30.99;34.09;;
66463;Laerm;56827;52.178;4.500;2024-03-22T00:54:39;32.56;30.72;34.18;;
66463;Laerm;56827;52.178;4.500;2024-03-22T00:54:50;32.39;31.09;34.55;;
66463;Laerm;56827;52.178;4.500;2024-03-22T00:55:00;32.37;30.62;34.02;;
66463;Laerm;56827;52.178;4.500;2024-03-22T00:55:11;32.32;30.59;34.11;;
66463;Laerm;56827;52.178;4.500;2024-03-22T00:55:21;32.56;30.58;35.02;;
66463;Laerm;56827;52.178;4.500;2024-03-22T00:55:31;36.99;33.45;41.83;;
66463;Laerm;56827;52.178;4.500;2024-03-22T00:55:42;35.27;31.25;42.94;;
66463;Laerm;56827;52.178;4.500;2024-03-22T00:55:53;33.34;31.55;37.73;;
66463;Laerm;56827;52.178;4.500;2024-03-22T00:56:04;33.88;31.81;37.02;;
66463;Laerm;56827;52.178;4.500;2024-03-22T00:56:14;33.69;31.67;35.81;;
66463;Laerm;56827;52.178;4.500;2024-03-22T00:56:24;34.71;32.39;37.65;;
66463;Laerm;56827;52.178;4.500;2024-03-22T00:56:34;35.52;31.56;45.41;;
66463;Laerm;56827;52.178;4.500;2024-03-22T00:56:45;44.38;32.25;57.46;;
66463;Laerm;56827;52.178;4.500;2024-03-22T00:56:55;36.51;30.49;50.38;;
66463;Laerm;56827;52.178;4.500;2024-03-22T00:57:05;33.77;30.23;48.45;;
66463;Laerm;56827;52.178;4.500;2024-03-22T00:57:17;36.55;30.80;52.10;;
66463;Laerm;56827;52.178;4.500;2024-03-22T00:57:27;36.39;30.95;50.41;;
66463;Laerm;56827;52.178;4.500;2024-03-22T00:57:38;32.89;31.21;42.14;;
66463;Laerm;56827;52.178;4.500;2024-03-22T00:57:48;32.48;30.85;34.08;;
66463;Laerm;56827;52.178;4.500;2024-03-22T00:57:58;32.73;31.01;37.26;;
66463;Laerm;56827;52.178;4.500;2024-03-22T00:58:08;32.21;30.78;38.99;;
66463;Laerm;56827;52.178;4.500;2024-03-22T00:58:19;32.14;30.83;33.49;;